»·PEaware :: JBU554 MDSD-TNCM

JBU554 :: MDSD-TNCM

FLIGHT INFORMATION

Flight Status: Arrived
Operator:
JetBlue Airways
More flights by this operator :: More flights under this callsign
Pilot: Shawn G. (7208)
Aircraft: AIRBUS A320
(A320)
More flights by this aircraft type
Origin: MDSD Las Americas Dr J F Pena Gome
Dominican Republic
Destination: TNCM Princess Juliana Intl
Netherlands Antilles
More flights between these airports :: More routes between these airports
Route: MIROX1L MIROX G633 MAZ RTE12 JOSHE RTE4 TUUNA A555 COY R760 GOUDA
File this flight plan on PilotEdge
Remarks:
Altitude:
(Current/Filed)
29,000ft
Speed:
(Current/Filed)
450kts
Departed: 19-Mar-17 07:17 PM
Arrived: 19-Mar-17 08:19 PM
Distance/Time
Traveled:
374nm/1:01
Distance/Time
To Go:
Arrived

Flight Plot

Page will automatically refresh every two minutes.

Flight plan parsing failed; only flown route is shown


Map Options




Map Legend


Flown Route
Filed Route
Departure Airport
Arrival Airport
Navaid (VOR, NDB)
Fix

Horizontal Profiles

Position Reports

Time Latitude Longitude Heading Altitude Ground
Speed
19-Mar-17 19:16 18.430999 -69.675655 290 67ft 0kts
19-Mar-17 19:17 18.429655 -69.673212 93 67ft 23kts
19-Mar-17 19:18 18.424701 -69.669099 159 67ft 41kts
19-Mar-17 19:19 18.415593 -69.665404 112 67ft 12kts
19-Mar-17 19:20 18.422091 -69.666173 341 67ft 104kts
19-Mar-17 19:21 18.462773 -69.681501 341 1800ft 168kts
19-Mar-17 19:22 18.509275 -69.652034 63 2675ft 264kts
19-Mar-17 19:23 18.502045 -69.576405 96 2992ft 267kts
19-Mar-17 19:24 18.487142 -69.499222 110 3291ft 282kts
19-Mar-17 19:25 18.442984 -69.431585 122 6662ft 290kts
19-Mar-17 19:26 18.395416 -69.361827 122 8969ft 305kts
19-Mar-17 19:27 18.356824 -69.278633 101 10348ft 366kts
19-Mar-17 19:28 18.328719 -69.170464 102 12865ft 394kts
19-Mar-17 19:29 18.299661 -69.057102 102 15495ft 411kts
19-Mar-17 19:30 18.270121 -68.940313 101 17859ft 426kts
19-Mar-17 19:31 18.238261 -68.818197 101 20022ft 442kts
19-Mar-17 19:32 18.208620 -68.691486 100 21939ft 457kts
19-Mar-17 19:33 18.179745 -68.560761 90 23689ft 466kts
19-Mar-17 19:34 18.187182 -68.425230 81 25266ft 473kts
19-Mar-17 19:35 18.191790 -68.287614 84 26647ft 486kts
19-Mar-17 19:36 18.195918 -68.145141 84 28278ft 487kts
19-Mar-17 19:37 18.199977 -68.003385 83 29800ft 486kts
19-Mar-17 19:38 18.209461 -67.862167 81 31074ft 486kts
19-Mar-17 19:39 18.219024 -67.720723 81 32213ft 488kts
19-Mar-17 19:40 18.228542 -67.578404 81 33224ft 489kts
19-Mar-17 19:41 18.237944 -67.436280 81 34115ft 491kts
19-Mar-17 19:42 18.247220 -67.294302 81 34912ft 491kts
19-Mar-17 19:43 18.256069 -67.151247 84 35083ft 494kts
19-Mar-17 19:44 18.253375 -67.007695 87 35071ft 495kts
19-Mar-17 19:45 18.250354 -66.863590 87 35074ft 495kts
19-Mar-17 19:46 18.247423 -66.718773 94 35097ft 503kts
19-Mar-17 19:47 18.243966 -66.570116 93 35080ft 517kts
19-Mar-17 19:48 18.211118 -66.428801 118 35086ft 501kts
19-Mar-17 19:49 18.155879 -66.296803 120 35073ft 498kts
19-Mar-17 19:50 18.099639 -66.164424 120 35071ft 499kts
19-Mar-17 19:51 18.042962 -66.031384 120 35073ft 499kts
19-Mar-17 19:52 17.986825 -65.899467 117 35093ft 501kts
19-Mar-17 19:53 17.954121 -65.755424 106 35109ft 508kts
19-Mar-17 19:54 17.924255 -65.610743 106 35112ft 508kts
19-Mar-17 19:55 17.894309 -65.466250 106 35117ft 508kts
19-Mar-17 19:56 17.864448 -65.323018 106 35080ft 508kts
19-Mar-17 19:57 17.834326 -65.177675 106 33749ft 523kts
19-Mar-17 19:58 17.803851 -65.030898 105 31326ft 500kts
19-Mar-17 19:59 17.775043 -64.893572 105 28652ft 465kts
19-Mar-17 20:00 17.748347 -64.766783 105 26404ft 434kts
19-Mar-17 20:01 17.746716 -64.641668 78 24283ft 440kts
19-Mar-17 20:02 17.770218 -64.517132 77 22096ft 422kts
19-Mar-17 20:03 17.792582 -64.401761 77 20104ft 395kts
19-Mar-17 20:04 17.814359 -64.289066 78 18143ft 399kts
19-Mar-17 20:05 17.836030 -64.176629 77 16160ft 381kts
19-Mar-17 20:06 17.856127 -64.072062 77 14360ft 360kts
19-Mar-17 20:07 17.875891 -63.968950 77 12595ft 363kts
19-Mar-17 20:08 17.895743 -63.865047 77 10788ft 359kts
19-Mar-17 20:09 17.914300 -63.768516 77 9387ft 328kts
19-Mar-17 20:10 17.932315 -63.675116 77 7909ft 325kts
19-Mar-17 20:11 17.951281 -63.586497 75 6476ft 294kts
19-Mar-17 20:12 17.968669 -63.505914 75 5211ft 278kts
19-Mar-17 20:13 17.985035 -63.429915 75 3950ft 259kts
19-Mar-17 20:14 18.000858 -63.356439 75 2989ft 255kts
19-Mar-17 20:15 18.014990 -63.289014 82 2513ft 216kts
19-Mar-17 20:16 18.022384 -63.236948 81 1893ft 146kts
19-Mar-17 20:17 18.028264 -63.195830 81 1431ft 143kts
19-Mar-17 20:18 18.034088 -63.154941 81 695ft 141kts
19-Mar-17 20:19 18.040121 -63.114849 80 23ft 114kts
19-Mar-17 20:20 18.041357 -63.105080 304 22ft 5kts
19-Mar-17 20:21 18.041503 -63.110002 341 22ft 13kts
19-Mar-17 20:22 18.041387 -63.112499 260 22ft 8kts
19-Mar-17 20:23 18.042770 -63.112598 60 22ft 5kts
19-Mar-17 20:24 18.043429 -63.112237 350 22ft 1kts
19-Mar-17 20:25 18.043484 -63.112247 350 22ft 0kts

Navigation Log

Ident Type
Flight plan parsing failed, navigation log unavailable